sensor_id;sensor_type;location;lat;lon;timestamp;P1;durP1;ratioP1;P2;durP2;ratioP2
12972;SDS011;6551;51.056;9.466;2023-04-01T00:01:07;3.17;;;1.33;;
12972;SDS011;6551;51.056;9.466;2023-04-01T00:03:33;4.57;;;1.33;;
12972;SDS011;6551;51.056;9.466;2023-04-01T00:06:00;4.00;;;1.30;;
12972;SDS011;6551;51.056;9.466;2023-04-01T00:08:27;5.50;;;1.13;;
12972;SDS011;6551;51.056;9.466;2023-04-01T00:10:53;4.57;;;1.50;;
12972;SDS011;6551;51.056;9.466;2023-04-01T00:13:21;4.27;;;1.40;;
12972;SDS011;6551;51.056;9.466;2023-04-01T00:15:48;8.10;;;1.30;;
12972;SDS011;6551;51.056;9.466;2023-04-01T00:18:16;3.50;;;1.17;;
12972;SDS011;6551;51.056;9.466;2023-04-01T00:20:45;6.13;;;1.37;;
12972;SDS011;6551;51.056;9.466;2023-04-01T00:23:15;5.83;;;1.40;;
12972;SDS011;6551;51.056;9.466;2023-04-01T00:25:43;5.37;;;1.50;;
12972;SDS011;6551;51.056;9.466;2023-04-01T00:28:12;5.07;;;1.40;;
12972;SDS011;6551;51.056;9.466;2023-04-01T00:30:39;5.60;;;1.77;;
12972;SDS011;6551;51.056;9.466;2023-04-01T00:33:05;2.77;;;1.43;;
12972;SDS011;6551;51.056;9.466;2023-04-01T00:35:31;2.97;;;1.30;;
12972;SDS011;6551;51.056;9.466;2023-04-01T00:37:57;5.37;;;1.43;;
12972;SDS011;6551;51.056;9.466;2023-04-01T00:40:31;4.10;;;1.00;;
12972;SDS011;6551;51.056;9.466;2023-04-01T00:43:00;4.23;;;1.30;;
12972;SDS011;6551;51.056;9.466;2023-04-01T00:45:38;6.40;;;1.60;;
12972;SDS011;6551;51.056;9.466;2023-04-01T00:48:51;7.50;;;1.90;;
12972;SDS011;6551;51.056;9.466;2023-04-01T00:51:07;3.60;;;1.30;;
12972;SDS011;6551;51.056;9.466;2023-04-01T00:53:44;6.77;;;1.67;;
12972;SDS011;6551;51.056;9.466;2023-04-01T00:56:19;10.13;;;1.40;;
12972;SDS011;6551;51.056;9.466;2023-04-01T00:59:00;8.27;;;1.80;;
12972;SDS011;6551;51.056;9.466;2023-04-01T01:01:34;5.93;;;1.20;;
12972;SDS011;6551;51.056;9.466;2023-04-01T01:04:01;5.00;;;1.40;;
12972;SDS011;6551;51.056;9.466;2023-04-01T01:06:38;6.50;;;1.63;;
12972;SDS011;6551;51.056;9.466;2023-04-01T01:09:38;4.77;;;1.40;;
12972;SDS011;6551;51.056;9.466;2023-04-01T01:12:18;5.80;;;1.50;;
12972;SDS011;6551;51.056;9.466;2023-04-01T01:20:45;5.10;;;1.40;;
12972;SDS011;6551;51.056;9.466;2023-04-01T01:23:46;7.77;;;1.70;;
12972;SDS011;6551;51.056;9.466;2023-04-01T01:29:40;7.50;;;1.70;;
12972;SDS011;6551;51.056;9.466;2023-04-01T01:38:24;3.83;;;1.37;;
12972;SDS011;6551;51.056;9.466;2023-04-01T01:40:55;10.73;;;1.63;;
12972;SDS011;6551;51.056;9.466;2023-04-01T01:43:56;5.77;;;1.67;;
12972;SDS011;6551;51.056;9.466;2023-04-01T01:46:18;5.13;;;1.50;;
12972;SDS011;6551;51.056;9.466;2023-04-01T01:48:49;7.00;;;1.67;;
12972;SDS011;6551;51.056;9.466;2023-04-01T01:51:17;6.20;;;1.50;;
12972;SDS011;6551;51.056;9.466;2023-04-01T01:53:46;4.67;;;1.40;;
12972;SDS011;6551;51.056;9.466;2023-04-01T01:56:12;7.40;;;1.30;;
12972;SDS011;6551;51.056;9.466;2023-04-01T01:58:45;7.77;;;1.30;;
12972;SDS011;6551;51.056;9.466;2023-04-01T02:01:19;5.53;;;1.47;;
12972;SDS011;6551;51.056;9.466;2023-04-01T02:03:56;5.37;;;1.30;;
12972;SDS011;6551;51.056;9.466;2023-04-01T02:06:23;4.67;;;1.53;;
12972;SDS011;6551;51.056;9.466;2023-04-01T02:08:59;3.73;;;1.27;;
12972;SDS011;6551;51.056;9.466;2023-04-01T02:11:33;7.17;;;1.60;;
12972;SDS011;6551;51.056;9.466;2023-04-01T02:14:30;4.50;;;1.20;;
12972;SDS011;6551;51.056;9.466;2023-04-01T02:17:33;5.17;;;1.13;;
12972;SDS011;6551;51.056;9.466;2023-04-01T02:20:22;4.33;;;1.27;;
12972;SDS011;6551;51.056;9.466;2023-04-01T02:22:51;3.57;;;1.57;;
12972;SDS011;6551;51.056;9.466;2023-04-01T02:25:25;3.30;;;1.20;;
12972;SDS011;6551;51.056;9.466;2023-04-01T02:27:59;6.20;;;1.27;;
12972;SDS011;6551;51.056;9.466;2023-04-01T02:30:30;8.23;;;1.43;;
12972;SDS011;6551;51.056;9.466;2023-04-01T02:33:00;3.50;;;1.10;;
12972;SDS011;6551;51.056;9.466;2023-04-01T02:35:28;1.80;;;0.90;;
12972;SDS011;6551;51.056;9.466;2023-04-01T02:37:58;3.43;;;0.90;;
12972;SDS011;6551;51.056;9.466;2023-04-01T02:40:25;4.17;;;1.23;;
12972;SDS011;6551;51.056;9.466;2023-04-01T02:42:50;2.53;;;0.83;;
12972;SDS011;6551;51.056;9.466;2023-04-01T02:45:18;4.33;;;1.10;;
12972;SDS011;6551;51.056;9.466;2023-04-01T02:47:45;3.60;;;0.83;;
12972;SDS011;6551;51.056;9.466;2023-04-01T02:50:11;3.97;;;1.00;;
12972;SDS011;6551;51.056;9.466;2023-04-01T02:52:36;5.10;;;1.30;;
12972;SDS011;6551;51.056;9.466;2023-04-01T02:55:03;2.80;;;1.13;;
12972;SDS011;6551;51.056;9.466;2023-04-01T02:57:31;3.43;;;1.03;;
12972;SDS011;6551;51.056;9.466;2023-04-01T02:59:58;4.23;;;0.93;;
12972;SDS011;6551;51.056;9.466;2023-04-01T03:02:23;3.17;;;1.07;;
12972;SDS011;6551;51.056;9.466;2023-04-01T03:04:50;4.60;;;1.10;;
12972;SDS011;6551;51.056;9.466;2023-04-01T03:07:17;4.63;;;1.30;;
12972;SDS011;6551;51.056;9.466;2023-04-01T03:09:42;2.90;;;0.90;;
12972;SDS011;6551;51.056;9.466;2023-04-01T03:12:08;5.37;;;1.10;;
12972;SDS011;6551;51.056;9.466;2023-04-01T03:14:34;4.97;;;1.10;;
12972;SDS011;6551;51.056;9.466;2023-04-01T03:17:01;3.80;;;1.10;;
12972;SDS011;6551;51.056;9.466;2023-04-01T03:19:28;2.80;;;1.00;;
12972;SDS011;6551;51.056;9.466;2023-04-01T03:21:53;5.40;;;1.10;;
12972;SDS011;6551;51.056;9.466;2023-04-01T03:24:20;1.27;;;0.80;;
12972;SDS011;6551;51.056;9.466;2023-04-01T03:26:46;4.23;;;1.30;;
12972;SDS011;6551;51.056;9.466;2023-04-01T03:29:12;3.83;;;1.40;;
12972;SDS011;6551;51.056;9.466;2023-04-01T03:31:40;3.73;;;1.00;;
12972;SDS011;6551;51.056;9.466;2023-04-01T03:34:06;3.03;;;1.10;;
12972;SDS011;6551;51.056;9.466;2023-04-01T03:36:33;5.87;;;1.10;;
12972;SDS011;6551;51.056;9.466;2023-04-01T03:39:00;3.83;;;1.00;;
12972;SDS011;6551;51.056;9.466;2023-04-01T03:41:27;3.10;;;1.10;;
12972;SDS011;6551;51.056;9.466;2023-04-01T03:43:53;4.70;;;1.20;;
12972;SDS011;6551;51.056;9.466;2023-04-01T03:46:20;3.03;;;1.10;;
12972;SDS011;6551;51.056;9.466;2023-04-01T03:48:47;4.87;;;1.17;;
12972;SDS011;6551;51.056;9.466;2023-04-01T03:51:15;4.30;;;1.00;;
12972;SDS011;6551;51.056;9.466;2023-04-01T03:53:41;2.67;;;0.70;;
12972;SDS011;6551;51.056;9.466;2023-04-01T03:56:07;4.30;;;1.30;;
12972;SDS011;6551;51.056;9.466;2023-04-01T03:58:36;4.27;;;1.30;;
12972;SDS011;6551;51.056;9.466;2023-04-01T04:01:21;4.30;;;1.77;;
12972;SDS011;6551;51.056;9.466;2023-04-01T04:03:48;4.33;;;2.13;;
12972;SDS011;6551;51.056;9.466;2023-04-01T04:06:16;4.60;;;1.17;;
12972;SDS011;6551;51.056;9.466;2023-04-01T04:08:45;4.30;;;1.20;;
12972;SDS011;6551;51.056;9.466;2023-04-01T04:11:11;6.03;;;2.50;;
12972;SDS011;6551;51.056;9.466;2023-04-01T04:13:37;4.03;;;1.70;;
12972;SDS011;6551;51.056;9.466;2023-04-01T04:16:03;5.90;;;1.10;;
12972;SDS011;6551;51.056;9.466;2023-04-01T04:18:31;3.97;;;1.00;;
12972;SDS011;6551;51.056;9.466;2023-04-01T04:20:58;4.53;;;0.80;;
12972;SDS011;6551;51.056;9.466;2023-04-01T04:23:24;6.00;;;1.47;;
12972;SDS011;6551;51.056;9.466;2023-04-01T04:26:07;4.57;;;1.30;;
12972;SDS011;6551;51.056;9.466;2023-04-01T04:28:37;2.10;;;1.10;;
12972;SDS011;6551;51.056;9.466;2023-04-01T04:31:04;4.30;;;1.10;;
12972;SDS011;6551;51.056;9.466;2023-04-01T04:33:32;4.53;;;1.17;;
12972;SDS011;6551;51.056;9.466;2023-04-01T04:36:00;4.43;;;0.97;;
12972;SDS011;6551;51.056;9.466;2023-04-01T04:38:29;3.17;;;1.27;;
12972;SDS011;6551;51.056;9.466;2023-04-01T04:40:55;7.73;;;1.57;;
12972;SDS011;6551;51.056;9.466;2023-04-01T04:43:23;3.33;;;1.00;;
12972;SDS011;6551;51.056;9.466;2023-04-01T04:45:50;2.77;;;0.80;;
12972;SDS011;6551;51.056;9.466;2023-04-01T04:48:17;3.07;;;0.83;;
12972;SDS011;6551;51.056;9.466;2023-04-01T04:50:49;8.37;;;1.20;;
12972;SDS011;6551;51.056;9.466;2023-04-01T04:53:16;3.83;;;0.87;;
12972;SDS011;6551;51.056;9.466;2023-04-01T04:55:47;4.20;;;0.90;;
12972;SDS011;6551;51.056;9.466;2023-04-01T04:58:16;4.07;;;1.53;;
12972;SDS011;6551;51.056;9.466;2023-04-01T05:00:45;3.07;;;1.20;;
12972;SDS011;6551;51.056;9.466;2023-04-01T05:03:11;6.07;;;1.30;;
12972;SDS011;6551;51.056;9.466;2023-04-01T05:05:38;4.10;;;1.13;;
12972;SDS011;6551;51.056;9.466;2023-04-01T05:08:04;6.40;;;1.40;;
12972;SDS011;6551;51.056;9.466;2023-04-01T05:10:32;4.87;;;1.30;;
12972;SDS011;6551;51.056;9.466;2023-04-01T05:12:59;2.60;;;0.90;;
12972;SDS011;6551;51.056;9.466;2023-04-01T05:15:25;2.43;;;0.70;;
12972;SDS011;6551;51.056;9.466;2023-04-01T05:17:51;3.27;;;1.00;;
12972;SDS011;6551;51.056;9.466;2023-04-01T05:20:17;4.20;;;1.00;;
12972;SDS011;6551;51.056;9.466;2023-04-01T05:22:43;3.73;;;0.70;;
12972;SDS011;6551;51.056;9.466;2023-04-01T05:25:09;0.70;;;0.50;;
12972;SDS011;6551;51.056;9.466;2023-04-01T05:27:35;3.07;;;1.00;;
12972;SDS011;6551;51.056;9.466;2023-04-01T05:30:01;2.70;;;0.90;;
12972;SDS011;6551;51.056;9.466;2023-04-01T05:32:28;3.63;;;0.70;;
12972;SDS011;6551;51.056;9.466;2023-04-01T05:34:55;2.77;;;0.83;;
12972;SDS011;6551;51.056;9.466;2023-04-01T05:37:21;2.20;;;0.70;;
12972;SDS011;6551;51.056;9.466;2023-04-01T05:39:47;4.10;;;1.10;;
12972;SDS011;6551;51.056;9.466;2023-04-01T05:42:15;2.20;;;1.30;;
12972;SDS011;6551;51.056;9.466;2023-04-01T05:44:42;2.57;;;1.00;;
12972;SDS011;6551;51.056;9.466;2023-04-01T05:47:08;2.93;;;0.90;;
12972;SDS011;6551;51.056;9.466;2023-04-01T05:49:35;5.43;;;0.80;;
12972;SDS011;6551;51.056;9.466;2023-04-01T05:52:00;6.40;;;1.50;;
12972;SDS011;6551;51.056;9.466;2023-04-01T05:54:27;3.43;;;0.80;;
12972;SDS011;6551;51.056;9.466;2023-04-01T05:56:54;2.37;;;1.03;;
12972;SDS011;6551;51.056;9.466;2023-04-01T05:59:21;3.83;;;0.90;;
12972;SDS011;6551;51.056;9.466;2023-04-01T06:01:47;3.77;;;0.90;;
12972;SDS011;6551;51.056;9.466;2023-04-01T06:04:13;2.33;;;1.20;;
12972;SDS011;6551;51.056;9.466;2023-04-01T06:06:41;4.70;;;0.90;;
12972;SDS011;6551;51.056;9.466;2023-04-01T06:09:14;2.67;;;0.80;;
12972;SDS011;6551;51.056;9.466;2023-04-01T06:15:00;3.03;;;0.73;;
12972;SDS011;6551;51.056;9.466;2023-04-01T06:30:32;1.97;;;1.20;;
12972;SDS011;6551;51.056;9.466;2023-04-01T06:33:06;3.83;;;0.90;;
12972;SDS011;6551;51.056;9.466;2023-04-01T06:38:23;2.47;;;1.13;;
12972;SDS011;6551;51.056;9.466;2023-04-01T06:41:14;2.33;;;0.77;;
12972;SDS011;6551;51.056;9.466;2023-04-01T06:50:40;2.07;;;0.90;;
12972;SDS011;6551;51.056;9.466;2023-04-01T06:56:27;3.27;;;0.80;;
12972;SDS011;6551;51.056;9.466;2023-04-01T07:01:26;2.10;;;0.60;;
12972;SDS011;6551;51.056;9.466;2023-04-01T07:04:25;3.20;;;0.60;;
12972;SDS011;6551;51.056;9.466;2023-04-01T07:07:04;8.07;;;0.90;;
12972;SDS011;6551;51.056;9.466;2023-04-01T07:09:37;2.93;;;0.50;;
12972;SDS011;6551;51.056;9.466;2023-04-01T07:12:15;1.50;;;0.57;;
12972;SDS011;6551;51.056;9.466;2023-04-01T07:14:57;1.47;;;0.70;;
12972;SDS011;6551;51.056;9.466;2023-04-01T07:17:30;2.00;;;0.70;;
12972;SDS011;6551;51.056;9.466;2023-04-01T07:22:42;1.50;;;0.67;;
12972;SDS011;6551;51.056;9.466;2023-04-01T07:25:21;2.27;;;0.50;;
12972;SDS011;6551;51.056;9.466;2023-04-01T07:27:59;0.77;;;0.33;;
12972;SDS011;6551;51.056;9.466;2023-04-01T07:30:40;3.13;;;0.40;;
12972;SDS011;6551;51.056;9.466;2023-04-01T07:37:06;0.93;;;0.40;;
12972;SDS011;6551;51.056;9.466;2023-04-01T07:45:58;2.03;;;0.87;;
12972;SDS011;6551;51.056;9.466;2023-04-01T07:52:49;1.27;;;0.80;;
12972;SDS011;6551;51.056;9.466;2023-04-01T07:55:54;1.63;;;0.67;;
12972;SDS011;6551;51.056;9.466;2023-04-01T08:07:25;3.37;;;0.60;;
12972;SDS011;6551;51.056;9.466;2023-04-01T08:22:15;1.60;;;0.60;;
12972;SDS011;6551;51.056;9.466;2023-04-01T08:24:59;3.00;;;0.50;;
12972;SDS011;6551;51.056;9.466;2023-04-01T08:27:35;1.80;;;0.50;;
12972;SDS011;6551;51.056;9.466;2023-04-01T08:30:35;1.53;;;0.50;;
12972;SDS011;6551;51.056;9.466;2023-04-01T08:39:06;2.80;;;0.50;;
12972;SDS011;6551;51.056;9.466;2023-04-01T08:45:06;2.20;;;0.50;;
12972;SDS011;6551;51.056;9.466;2023-04-01T09:01:11;0.57;;;0.33;;
12972;SDS011;6551;51.056;9.466;2023-04-01T09:22:19;1.70;;;0.30;;
12972;SDS011;6551;51.056;9.466;2023-04-01T09:36:55;1.90;;;0.60;;
12972;SDS011;6551;51.056;9.466;2023-04-01T10:04:30;0.80;;;0.40;;
12972;SDS011;6551;51.056;9.466;2023-04-01T10:13:45;2.33;;;1.63;;
12972;SDS011;6551;51.056;9.466;2023-04-01T10:23:02;0.37;;;0.30;;
12972;SDS011;6551;51.056;9.466;2023-04-01T10:50:38;2.57;;;2.37;;
12972;SDS011;6551;51.056;9.466;2023-04-01T10:57:10;6.33;;;5.20;;
12972;SDS011;6551;51.056;9.466;2023-04-01T11:25:04;0.80;;;0.60;;
12972;SDS011;6551;51.056;9.466;2023-04-01T11:27:56;0.90;;;0.53;;
12972;SDS011;6551;51.056;9.466;2023-04-01T11:43:05;2.50;;;0.30;;
12972;SDS011;6551;51.056;9.466;2023-04-01T11:46:11;0.50;;;0.20;;
12972;SDS011;6551;51.056;9.466;2023-04-01T11:49:07;0.73;;;0.20;;
12972;SDS011;6551;51.056;9.466;2023-04-01T11:58:40;9.67;;;5.23;;
12972;SDS011;6551;51.056;9.466;2023-04-01T12:13:14;0.50;;;0.40;;
12972;SDS011;6551;51.056;9.466;2023-04-01T12:19:39;1.63;;;0.20;;
12972;SDS011;6551;51.056;9.466;2023-04-01T12:23:03;0.40;;;0.23;;
12972;SDS011;6551;51.056;9.466;2023-04-01T12:38:44;0.87;;;0.40;;
12972;SDS011;6551;51.056;9.466;2023-04-01T12:41:53;1.77;;;0.90;;
12972;SDS011;6551;51.056;9.466;2023-04-01T12:44:56;3.43;;;1.33;;
12972;SDS011;6551;51.056;9.466;2023-04-01T13:15:47;0.90;;;0.73;;
12972;SDS011;6551;51.056;9.466;2023-04-01T13:21:16;1.63;;;0.50;;
12972;SDS011;6551;51.056;9.466;2023-04-01T13:27:31;0.50;;;0.40;;
12972;SDS011;6551;51.056;9.466;2023-04-01T13:30:24;2.20;;;0.60;;
12972;SDS011;6551;51.056;9.466;2023-04-01T13:33:42;1.20;;;0.40;;
12972;SDS011;6551;51.056;9.466;2023-04-01T13:36:59;0.40;;;0.30;;
12972;SDS011;6551;51.056;9.466;2023-04-01T13:49:12;5.73;;;3.77;;
12972;SDS011;6551;51.056;9.466;2023-04-01T13:52:07;1.33;;;0.77;;
12972;SDS011;6551;51.056;9.466;2023-04-01T13:58:11;0.50;;;0.50;;
12972;SDS011;6551;51.056;9.466;2023-04-01T14:03:42;0.80;;;0.50;;
12972;SDS011;6551;51.056;9.466;2023-04-01T14:10:43;0.60;;;0.40;;
12972;SDS011;6551;51.056;9.466;2023-04-01T14:22:38;2.10;;;1.90;;
12972;SDS011;6551;51.056;9.466;2023-04-01T14:28:29;1.00;;;0.80;;
12972;SDS011;6551;51.056;9.466;2023-04-01T14:34:17;0.60;;;0.50;;
12972;SDS011;6551;51.056;9.466;2023-04-01T14:40:03;1.90;;;0.73;;
12972;SDS011;6551;51.056;9.466;2023-04-01T14:42:59;0.90;;;0.60;;
12972;SDS011;6551;51.056;9.466;2023-04-01T14:45:51;0.80;;;0.70;;
12972;SDS011;6551;51.056;9.466;2023-04-01T14:51:39;0.50;;;0.40;;
12972;SDS011;6551;51.056;9.466;2023-04-01T14:54:13;1.00;;;0.60;;
12972;SDS011;6551;51.056;9.466;2023-04-01T14:57:31;0.70;;;0.50;;
12972;SDS011;6551;51.056;9.466;2023-04-01T14:59:40;0.73;;;0.50;;
12972;SDS011;6551;51.056;9.466;2023-04-01T15:05:39;0.70;;;0.60;;
12972;SDS011;6551;51.056;9.466;2023-04-01T15:31:30;1.00;;;0.90;;
12972;SDS011;6551;51.056;9.466;2023-04-01T15:37:32;1.13;;;1.00;;
12972;SDS011;6551;51.056;9.466;2023-04-01T16:01:17;2.90;;;1.70;;
12972;SDS011;6551;51.056;9.466;2023-04-01T16:07:43;2.20;;;1.77;;
12972;SDS011;6551;51.056;9.466;2023-04-01T16:13:35;2.37;;;2.13;;
12972;SDS011;6551;51.056;9.466;2023-04-01T16:16:22;1.93;;;1.73;;
12972;SDS011;6551;51.056;9.466;2023-04-01T16:22:26;2.07;;;1.87;;
12972;SDS011;6551;51.056;9.466;2023-04-01T16:37:10;3.70;;;3.30;;
12972;SDS011;6551;51.056;9.466;2023-04-01T16:40:24;4.33;;;3.93;;
12972;SDS011;6551;51.056;9.466;2023-04-01T16:43:38;4.83;;;4.20;;
12972;SDS011;6551;51.056;9.466;2023-04-01T16:46:38;5.40;;;4.90;;
12972;SDS011;6551;51.056;9.466;2023-04-01T16:57:37;4.00;;;2.73;;
12972;SDS011;6551;51.056;9.466;2023-04-01T17:00:39;3.37;;;3.07;;
12972;SDS011;6551;51.056;9.466;2023-04-01T17:03:16;3.50;;;2.87;;
12972;SDS011;6551;51.056;9.466;2023-04-01T17:14:55;3.87;;;3.07;;
12972;SDS011;6551;51.056;9.466;2023-04-01T17:21:07;4.27;;;3.70;;
12972;SDS011;6551;51.056;9.466;2023-04-01T17:27:00;4.90;;;3.70;;
12972;SDS011;6551;51.056;9.466;2023-04-01T17:29:17;3.87;;;3.47;;
12972;SDS011;6551;51.056;9.466;2023-04-01T17:35:54;2.33;;;2.13;;
12972;SDS011;6551;51.056;9.466;2023-04-01T17:47:47;4.13;;;3.37;;
12972;SDS011;6551;51.056;9.466;2023-04-01T17:50:47;5.60;;;3.60;;
12972;SDS011;6551;51.056;9.466;2023-04-01T17:53:47;4.10;;;3.50;;
12972;SDS011;6551;51.056;9.466;2023-04-01T17:59:38;9.00;;;8.10;;
12972;SDS011;6551;51.056;9.466;2023-04-01T18:02:27;6.10;;;5.50;;
12972;SDS011;6551;51.056;9.466;2023-04-01T18:05:41;5.97;;;5.37;;
12972;SDS011;6551;51.056;9.466;2023-04-01T18:20:20;3.30;;;3.00;;
12972;SDS011;6551;51.056;9.466;2023-04-01T18:23:30;8.03;;;7.33;;
12972;SDS011;6551;51.056;9.466;2023-04-01T18:26:14;3.80;;;3.40;;
12972;SDS011;6551;51.056;9.466;2023-04-01T18:29:24;5.63;;;5.13;;
12972;SDS011;6551;51.056;9.466;2023-04-01T18:32:37;7.90;;;7.20;;
12972;SDS011;6551;51.056;9.466;2023-04-01T18:38:45;4.77;;;4.37;;
12972;SDS011;6551;51.056;9.466;2023-04-01T18:41:35;4.17;;;3.80;;
12972;SDS011;6551;51.056;9.466;2023-04-01T18:53:15;3.97;;;3.30;;
12972;SDS011;6551;51.056;9.466;2023-04-01T18:59:10;4.93;;;4.10;;
12972;SDS011;6551;51.056;9.466;2023-04-01T19:02:10;5.33;;;4.83;;
12972;SDS011;6551;51.056;9.466;2023-04-01T19:04:40;5.10;;;4.60;;
12972;SDS011;6551;51.056;9.466;2023-04-01T19:07:53;7.00;;;5.80;;
12972;SDS011;6551;51.056;9.466;2023-04-01T19:10:22;5.77;;;5.17;;
12972;SDS011;6551;51.056;9.466;2023-04-01T19:23:13;4.17;;;3.77;;
12972;SDS011;6551;51.056;9.466;2023-04-01T19:25:56;4.30;;;3.70;;
12972;SDS011;6551;51.056;9.466;2023-04-01T19:31:25;5.20;;;4.70;;
12972;SDS011;6551;51.056;9.466;2023-04-01T19:37:56;8.83;;;6.23;;
12972;SDS011;6551;51.056;9.466;2023-04-01T19:50:06;5.33;;;4.70;;
12972;SDS011;6551;51.056;9.466;2023-04-01T19:56:40;4.83;;;3.97;;
12972;SDS011;6551;51.056;9.466;2023-04-01T19:59:38;5.50;;;4.73;;
12972;SDS011;6551;51.056;9.466;2023-04-01T20:02:53;6.77;;;4.93;;
12972;SDS011;6551;51.056;9.466;2023-04-01T20:08:42;6.10;;;5.50;;
12972;SDS011;6551;51.056;9.466;2023-04-01T20:14:09;6.47;;;5.83;;
12972;SDS011;6551;51.056;9.466;2023-04-01T20:17:24;6.87;;;6.27;;
12972;SDS011;6551;51.056;9.466;2023-04-01T20:28:13;7.87;;;6.77;;
12972;SDS011;6551;51.056;9.466;2023-04-01T20:31:30;8.47;;;7.63;;
12972;SDS011;6551;51.056;9.466;2023-04-01T20:34:26;8.43;;;7.63;;
12972;SDS011;6551;51.056;9.466;2023-04-01T20:51:39;7.20;;;6.13;;
12972;SDS011;6551;51.056;9.466;2023-04-01T20:57:44;7.17;;;5.50;;
12972;SDS011;6551;51.056;9.466;2023-04-01T21:06:27;3.13;;;2.70;;
12972;SDS011;6551;51.056;9.466;2023-04-01T21:12:47;3.80;;;3.40;;
12972;SDS011;6551;51.056;9.466;2023-04-01T21:15:29;4.70;;;4.23;;
12972;SDS011;6551;51.056;9.466;2023-04-01T21:19:01;5.00;;;4.50;;
12972;SDS011;6551;51.056;9.466;2023-04-01T21:21:28;5.20;;;4.70;;
12972;SDS011;6551;51.056;9.466;2023-04-01T21:33:15;6.17;;;5.57;;
12972;SDS011;6551;51.056;9.466;2023-04-01T21:39:27;5.93;;;5.33;;
12972;SDS011;6551;51.056;9.466;2023-04-01T21:42:16;5.53;;;4.93;;
12972;SDS011;6551;51.056;9.466;2023-04-01T21:54:20;6.00;;;5.40;;
12972;SDS011;6551;51.056;9.466;2023-04-01T22:13:26;19.83;;;14.80;;
12972;SDS011;6551;51.056;9.466;2023-04-01T22:22:27;11.63;;;9.77;;
12972;SDS011;6551;51.056;9.466;2023-04-01T22:28:46;12.93;;;11.60;;
12972;SDS011;6551;51.056;9.466;2023-04-01T22:31:33;6.43;;;5.73;;
12972;SDS011;6551;51.056;9.466;2023-04-01T22:34:48;6.83;;;5.70;;
12972;SDS011;6551;51.056;9.466;2023-04-01T22:43:45;6.23;;;5.40;;
12972;SDS011;6551;51.056;9.466;2023-04-01T22:49:29;7.20;;;5.77;;
12972;SDS011;6551;51.056;9.466;2023-04-01T22:52:13;5.60;;;5.10;;
12972;SDS011;6551;51.056;9.466;2023-04-01T22:55:00;5.67;;;5.17;;
12972;SDS011;6551;51.056;9.466;2023-04-01T22:58:03;6.10;;;4.17;;
12972;SDS011;6551;51.056;9.466;2023-04-01T23:00:34;7.77;;;6.10;;
12972;SDS011;6551;51.056;9.466;2023-04-01T23:03:15;6.80;;;6.10;;
12972;SDS011;6551;51.056;9.466;2023-04-01T23:05:56;6.23;;;5.63;;
12972;SDS011;6551;51.056;9.466;2023-04-01T23:11:33;6.17;;;4.73;;
12972;SDS011;6551;51.056;9.466;2023-04-01T23:20:27;5.20;;;4.70;;
12972;SDS011;6551;51.056;9.466;2023-04-01T23:26:31;12.70;;;10.30;;
12972;SDS011;6551;51.056;9.466;2023-04-01T23:28:57;7.10;;;5.60;;
12972;SDS011;6551;51.056;9.466;2023-04-01T23:31:26;8.90;;;8.00;;
12972;SDS011;6551;51.056;9.466;2023-04-01T23:36:41;11.07;;;9.37;;
12972;SDS011;6551;51.056;9.466;2023-04-01T23:39:28;11.60;;;10.30;;
12972;SDS011;6551;51.056;9.466;2023-04-01T23:42:07;9.73;;;8.73;;
12972;SDS011;6551;51.056;9.466;2023-04-01T23:44:50;8.90;;;8.00;;
12972;SDS011;6551;51.056;9.466;2023-04-01T23:47:22;9.33;;;8.33;;
12972;SDS011;6551;51.056;9.466;2023-04-01T23:50:05;8.80;;;7.90;;
12972;SDS011;6551;51.056;9.466;2023-04-01T23:52:43;8.37;;;7.57;;
12972;SDS011;6551;51.056;9.466;2023-04-01T23:55:31;9.47;;;6.63;;
